Time,TemperatureF,DewpointF,PressureIn,WindDirection,WindDirectionDegrees,WindSpeedMPH,WindSpeedGustMPH,Humidity,HourlyPrecipIn,Conditions,Clouds,dailyrainin,SoftwareType,DateUTC
2013-04-27 00:00:00,59.6,32.0,29.99,SSW,205,0.0,7.0,35,0.00,,,0.00,weatherlink.com 1.10,2013-04-27 06:00:00,
2013-04-27 00:15:00,58.7,31.0,29.99,SSE,161,1.0,12.0,35,0.00,,,0.00,weatherlink.com 1.10,2013-04-27 06:15:00,
2013-04-27 00:30:00,58.6,31.0,29.99,SSE,165,1.0,5.0,35,0.00,,,0.00,weatherlink.com 1.10,2013-04-27 06:30:00,
2013-04-27 00:45:00,58.5,31.0,29.99,SSE,156,0.0,6.0,36,0.00,,,0.00,weatherlink.com 1.10,2013-04-27 06:45:00,
2013-04-27 01:00:00,57.7,31.0,29.99,WSW,252,4.0,8.0,36,0.00,,,0.00,weatherlink.com 1.10,2013-04-27 07:00:00,
2013-04-27 01:15:00,58.3,31.0,29.99,WSW,245,6.0,16.0,35,0.00,,,0.00,weatherlink.com 1.10,2013-04-27 07:15:00,
2013-04-27 01:30:00,57.8,30.0,29.98,South,173,5.0,11.0,35,0.00,,,0.00,weatherlink.com 1.10,2013-04-27 07:30:00,
2013-04-27 01:45:00,57.8,30.0,29.98,SSE,150,3.0,8.0,35,0.00,,,0.00,weatherlink.com 1.10,2013-04-27 07:45:00,
2013-04-27 02:00:00,58.4,28.0,29.98,South,171,8.0,17.0,32,0.00,,,0.00,weatherlink.com 1.10,2013-04-27 08:00:00,
2013-04-27 02:15:00,58.9,29.0,29.98,SSE,166,3.0,16.0,32,0.00,,,0.00,weatherlink.com 1.10,2013-04-27 08:15:00,
2013-04-27 02:30:00,58.6,29.0,29.98,West,266,2.0,12.0,33,0.00,,,0.00,weatherlink.com 1.10,2013-04-27 08:30:00,
2013-04-27 02:45:00,57.7,29.0,29.98,South,191,0.0,9.0,34,0.00,,,0.00,weatherlink.com 1.10,2013-04-27 08:45:00,
2013-04-27 03:00:00,57.3,29.0,29.97,WSW,244,9.0,12.0,34,0.00,,,0.00,weatherlink.com 1.10,2013-04-27 09:00:00,
2013-04-27 03:15:00,57.0,28.0,29.97,South,180,0.0,9.0,33,0.00,,,0.00,weatherlink.com 1.10,2013-04-27 09:15:00,
2013-04-27 03:30:00,56.3,29.0,29.97,SSE,167,1.0,8.0,35,0.00,,,0.00,weatherlink.com 1.10,2013-04-27 09:30:00,
2013-04-27 03:45:00,56.2,29.0,29.97,West,269,1.0,9.0,35,0.00,,,0.00,weatherlink.com 1.10,2013-04-27 09:45:00,
2013-04-27 04:00:00,56.2,29.0,29.96,SSW,192,0.0,9.0,35,0.00,,,0.00,weatherlink.com 1.10,2013-04-27 10:00:00,
2013-04-27 04:15:00,57.1,29.0,29.96,SSE,152,4.0,12.0,34,0.00,,,0.00,weatherlink.com 1.10,2013-04-27 10:15:00,
2013-04-27 04:30:00,55.8,28.0,29.95,NW,319,0.0,7.0,34,0.00,,,0.00,weatherlink.com 1.10,2013-04-27 10:30:00,
2013-04-27 04:45:00,56.1,29.0,29.95,SE,130,1.0,9.0,35,0.00,,,0.00,weatherlink.com 1.10,2013-04-27 10:45:00,
2013-04-27 05:00:00,53.8,29.0,29.95,SSE,154,1.0,8.0,39,0.00,,,0.00,weatherlink.com 1.10,2013-04-27 11:00:00,
2013-04-27 05:15:00,54.4,30.0,29.95,SSE,157,1.0,6.0,39,0.00,,,0.00,weatherlink.com 1.10,2013-04-27 11:15:00,
2013-04-27 05:30:00,55.0,30.0,29.96,SSE,160,0.0,9.0,38,0.00,,,0.00,weatherlink.com 1.10,2013-04-27 11:30:00,
2013-04-27 05:45:00,55.1,30.0,29.93,South,174,2.0,15.0,38,0.00,,,0.00,weatherlink.com 1.10,2013-04-27 11:45:00,
2013-04-27 06:00:00,55.3,30.0,29.92,SSW,200,3.0,15.0,38,0.00,,,0.00,weatherlink.com 1.10,2013-04-27 12:00:00,
2013-04-27 06:15:00,55.7,30.0,29.92,SE,146,5.0,14.0,37,0.00,,,0.00,weatherlink.com 1.10,2013-04-27 12:15:00,
2013-04-27 06:30:00,55.4,30.0,29.91,ESE,119,0.0,12.0,38,0.00,,,0.00,weatherlink.com 1.10,2013-04-27 12:30:00,
2013-04-27 06:45:00,57.0,29.0,29.91,South,173,3.0,17.0,35,0.00,,,0.00,weatherlink.com 1.10,2013-04-27 12:45:00,
2013-04-27 07:00:00,57.4,30.0,29.91,SSE,161,1.0,19.0,35,0.00,,,0.00,weatherlink.com 1.10,2013-04-27 13:00:00,
2013-04-27 07:15:00,56.7,30.0,29.91,SE,146,9.0,24.0,36,0.00,,,0.00,weatherlink.com 1.10,2013-04-27 13:15:00,
2013-04-27 07:30:00,56.2,31.0,29.89,SSE,159,15.0,20.0,39,0.00,,,0.00,weatherlink.com 1.10,2013-04-27 13:30:00,
2013-04-27 08:00:00,56.9,31.0,29.91,SSE,160,5.0,15.0,37,0.00,,,0.00,weatherlink.com 1.10,2013-04-27 14:00:00,
2013-04-27 08:15:00,56.6,31.0,29.90,SSE,153,15.0,23.0,38,0.00,,,0.00,weatherlink.com 1.10,2013-04-27 14:15:00,
2013-04-27 08:31:00,56.7,32.0,29.90,SSE,148,9.0,18.0,39,0.00,,,0.00,weatherlink.com 1.10,2013-04-27 14:31:00,
2013-04-27 08:46:00,57.4,30.0,29.89,South,180,5.0,13.0,36,0.00,,,0.00,weatherlink.com 1.10,2013-04-27 14:46:00,
2013-04-27 09:01:00,58.9,31.0,29.89,SSW,209,1.0,8.0,35,0.00,,,0.00,weatherlink.com 1.10,2013-04-27 15:01:00,
2013-04-27 09:16:00,59.5,32.0,29.91,SSE,150,3.0,14.0,35,0.00,,,0.00,weatherlink.com 1.10,2013-04-27 15:16:00,
2013-04-27 09:31:00,59.7,32.0,29.90,SE,129,11.0,23.0,35,0.00,,,0.00,weatherlink.com 1.10,2013-04-27 15:31:00,
2013-04-27 09:46:00,61.2,32.0,29.89,WSW,239,2.0,18.0,33,0.00,,,0.00,weatherlink.com 1.10,2013-04-27 15:46:00,
2013-04-27 10:01:00,62.3,29.0,29.87,WSW,254,13.0,23.0,29,0.00,,,0.00,weatherlink.com 1.10,2013-04-27 16:01:00,
2013-04-27 10:16:00,64.0,30.0,29.87,West,273,8.0,27.0,28,0.00,,,0.00,weatherlink.com 1.10,2013-04-27 16:16:00,
2013-04-27 10:31:00,65.2,30.0,29.86,WSW,246,14.0,21.0,27,0.00,,,0.00,weatherlink.com 1.10,2013-04-27 16:31:00,
2013-04-27 10:46:00,66.3,29.0,29.86,WSW,256,13.0,19.0,25,0.00,,,0.00,weatherlink.com 1.10,2013-04-27 16:46:00,
2013-04-27 11:01:00,66.4,27.0,29.86,South,187,6.0,19.0,23,0.00,,,0.00,weatherlink.com 1.10,2013-04-27 17:01:00,
2013-04-27 11:16:00,67.2,28.0,29.86,WSW,256,11.0,20.0,23,0.00,,,0.00,weatherlink.com 1.10,2013-04-27 17:16:00,
2013-04-27 11:31:00,67.7,31.0,29.85,West,264,10.0,16.0,25,0.00,,,0.00,weatherlink.com 1.10,2013-04-27 17:31:00,
2013-04-27 11:46:00,67.9,29.0,29.85,ESE,115,13.0,28.0,23,0.00,,,0.00,weatherlink.com 1.10,2013-04-27 17:46:00,
2013-04-27 12:01:00,67.8,27.0,29.85,WSW,248,7.0,42.0,22,0.00,,,0.00,weatherlink.com 1.10,2013-04-27 18:01:00,
2013-04-27 12:16:00,67.1,27.0,29.85,SW,235,6.0,24.0,22,0.00,,,0.00,weatherlink.com 1.10,2013-04-27 18:16:00,
2013-04-27 12:31:00,66.5,27.0,29.84,South,188,6.0,15.0,23,0.00,,,0.00,weatherlink.com 1.10,2013-04-27 18:31:00,
2013-04-27 12:46:00,66.0,25.0,29.83,West,269,19.0,27.0,21,0.00,,,0.00,weatherlink.com 1.10,2013-04-27 18:46:00,
2013-04-27 13:01:00,66.2,25.0,29.83,SW,234,18.0,21.0,21,0.00,,,0.00,weatherlink.com 1.10,2013-04-27 19:01:00,
2013-04-27 13:16:00,65.7,25.0,29.82,WNW,286,11.0,28.0,21,0.00,,,0.00,weatherlink.com 1.10,2013-04-27 19:16:00,
2013-04-27 13:31:00,65.6,26.0,29.82,West,262,5.0,16.0,22,0.00,,,0.00,weatherlink.com 1.10,2013-04-27 19:31:00,
2013-04-27 13:46:00,65.8,26.0,29.82,West,272,10.0,17.0,22,0.00,,,0.00,weatherlink.com 1.10,2013-04-27 19:46:00,
2013-04-27 14:01:00,66.9,24.0,29.82,SW,232,13.0,23.0,20,0.00,,,0.00,weatherlink.com 1.10,2013-04-27 20:01:00,
2013-04-27 14:16:00,68.7,23.0,29.82,SW,232,22.0,30.0,18,0.00,,,0.00,weatherlink.com 1.10,2013-04-27 20:16:00,
2013-04-27 14:31:00,68.8,25.0,29.80,WSW,237,13.0,26.0,19,0.00,,,0.00,weatherlink.com 1.10,2013-04-27 20:31:00,
2013-04-27 14:46:00,69.6,24.0,29.80,WSW,250,15.0,34.0,18,0.00,,,0.00,weatherlink.com 1.10,2013-04-27 20:46:00,
2013-04-27 15:01:00,69.5,25.0,29.79,SW,223,10.0,24.0,19,0.00,,,0.00,weatherlink.com 1.10,2013-04-27 21:01:00,
2013-04-27 15:16:00,69.5,25.0,29.77,West,263,6.0,24.0,19,0.00,,,0.00,weatherlink.com 1.10,2013-04-27 21:16:00,
2013-04-27 15:31:00,71.0,24.0,29.77,WSW,240,7.0,25.0,17,0.00,,,0.00,weatherlink.com 1.10,2013-04-27 21:31:00,
2013-04-27 15:46:00,70.6,25.0,29.75,WSW,252,10.0,33.0,18,0.00,,,0.00,weatherlink.com 1.10,2013-04-27 21:46:00,
2013-04-27 16:01:00,69.3,28.0,29.74,West,259,3.0,15.0,21,0.00,,,0.00,weatherlink.com 1.10,2013-04-27 22:01:00,
2013-04-27 16:16:00,69.7,28.0,29.74,South,173,8.0,18.0,21,0.00,,,0.00,weatherlink.com 1.10,2013-04-27 22:16:00,
2013-04-27 16:31:00,69.8,26.0,29.75,SSW,192,7.0,22.0,19,0.00,,,0.00,weatherlink.com 1.10,2013-04-27 22:31:00,
2013-04-27 16:46:00,69.8,26.0,29.74,West,272,9.0,30.0,19,0.00,,,0.00,weatherlink.com 1.10,2013-04-27 22:46:00,
2013-04-27 17:01:00,69.2,26.0,29.75,South,190,8.0,36.0,20,0.00,,,0.00,weatherlink.com 1.10,2013-04-27 23:01:00,
2013-04-27 17:16:00,68.6,26.0,29.75,SW,235,14.0,25.0,20,0.00,,,0.00,weatherlink.com 1.10,2013-04-27 23:16:00,
2013-04-27 17:31:00,68.8,27.0,29.75,SSW,198,8.0,24.0,21,0.00,,,0.00,weatherlink.com 1.10,2013-04-27 23:31:00,
2013-04-27 17:46:00,68.8,26.0,29.76,West,259,24.0,24.0,20,0.00,,,0.00,weatherlink.com 1.10,2013-04-27 23:46:00,
2013-04-27 18:01:00,68.8,26.0,29.75,SSE,159,8.0,20.0,20,0.00,,,0.00,weatherlink.com 1.10,2013-04-28 00:01:00,
2013-04-27 18:16:00,69.2,30.0,29.76,WSW,254,17.0,21.0,23,0.00,,,0.00,weatherlink.com 1.10,2013-04-28 00:16:00,
2013-04-27 18:31:00,67.8,26.0,29.76,SE,134,10.0,21.0,21,0.00,,,0.00,weatherlink.com 1.10,2013-04-28 00:31:00,
2013-04-27 18:46:00,66.5,26.0,29.75,SSE,148,5.0,23.0,22,0.00,,,0.00,weatherlink.com 1.10,2013-04-28 00:46:00,
2013-04-27 19:01:00,65.7,26.0,29.77,WSW,241,14.0,22.0,22,0.00,,,0.00,weatherlink.com 1.10,2013-04-28 01:01:00,
2013-04-27 19:16:00,65.6,26.0,29.76,WSW,242,7.0,19.0,22,0.00,,,0.00,weatherlink.com 1.10,2013-04-28 01:16:00,
2013-04-27 19:31:00,64.8,28.0,29.75,WSW,242,12.0,20.0,25,0.00,,,0.00,weatherlink.com 1.10,2013-04-28 01:31:00,
2013-04-27 19:47:00,62.7,27.0,29.75,SSE,156,6.0,23.0,26,0.00,,,0.00,weatherlink.com 1.10,2013-04-28 01:47:00,
2013-04-27 20:02:00,61.8,27.0,29.74,SW,225,10.0,17.0,27,0.00,,,0.00,weatherlink.com 1.10,2013-04-28 02:02:00,
2013-04-27 20:17:00,61.4,28.0,29.74,West,281,10.0,22.0,28,0.00,,,0.00,weatherlink.com 1.10,2013-04-28 02:17:00,
2013-04-27 20:32:00,60.8,28.0,29.75,SW,223,3.0,18.0,29,0.00,,,0.00,weatherlink.com 1.10,2013-04-28 02:32:00,
2013-04-27 20:47:00,59.8,29.0,29.75,WSW,240,9.0,16.0,31,0.00,,,0.00,weatherlink.com 1.10,2013-04-28 02:47:00,
2013-04-27 21:02:00,59.3,30.0,29.76,WSW,241,0.0,14.0,33,0.00,,,0.00,weatherlink.com 1.10,2013-04-28 03:02:00,
2013-04-27 21:17:00,58.9,30.0,29.76,West,271,7.0,26.0,34,0.00,,,0.00,weatherlink.com 1.10,2013-04-28 03:17:00,
2013-04-27 21:32:00,57.9,32.0,29.76,WSW,246,12.0,19.0,37,0.00,,,0.00,weatherlink.com 1.10,2013-04-28 03:32:00,
2013-04-27 21:47:00,57.7,32.0,29.77,WSW,244,15.0,20.0,38,0.00,,,0.00,weatherlink.com 1.10,2013-04-28 03:47:00,
2013-04-27 22:02:00,57.5,33.0,29.77,WSW,246,4.0,19.0,39,0.00,,,0.00,weatherlink.com 1.10,2013-04-28 04:02:00,
2013-04-27 22:17:00,56.6,34.0,29.78,SSW,213,16.0,20.0,42,0.00,,,0.00,weatherlink.com 1.10,2013-04-28 04:17:00,
2013-04-27 22:32:00,55.9,34.0,29.79,SW,230,4.0,23.0,44,0.00,,,0.00,weatherlink.com 1.10,2013-04-28 04:32:00,
2013-04-27 22:47:00,55.2,34.0,29.79,South,185,0.0,16.0,45,0.00,,,0.00,weatherlink.com 1.10,2013-04-28 04:47:00,
2013-04-27 23:02:00,54.6,35.0,29.80,SW,221,12.0,20.0,47,0.00,,,0.00,weatherlink.com 1.10,2013-04-28 05:02:00,
2013-04-27 23:17:00,54.6,35.0,29.79,West,279,8.0,15.0,47,0.00,,,0.00,weatherlink.com 1.10,2013-04-28 05:17:00,
2013-04-27 23:32:00,54.4,35.0,29.79,SW,234,13.0,22.0,48,0.00,,,0.00,weatherlink.com 1.10,2013-04-28 05:32:00,
2013-04-27 23:47:00,54.0,34.0,29.78,WSW,250,17.0,26.0,48,0.00,,,0.00,weatherlink.com 1.10,2013-04-28 05:47:00,